Time;durP1;ratioP1;P1;durP2;ratioP2;P2;SDS_P1;SDS_P2;PMS_P1;PMS_P2;Temp;Humidity;BMP_temperature;BMP_pressure;BME280_temperature;BME280_humidity;BME280_pressure;Samples;Min_cycle;Max_cycle;Signal;HPM_P1;HPM_P2
2022/03/08 00:00:12;;;;;;;2.37;2.13;;;;;;;-1.43;61.73;96803.16;5038364;28;20205;-70
2022/03/08 00:02:40;;;;;;;1.90;1.43;;;;;;;-1.44;61.65;96795.50;5037537;28;20228;-70
2022/03/08 00:05:08;;;;;;;4.10;2.20;;;;;;;-1.57;61.43;96797.16;5038718;28;20212;-70
2022/03/08 00:07:34;;;;;;;5.00;1.90;;;;;;;-1.72;62.86;96806.66;5038001;28;20201;-70
2022/03/08 00:10:01;;;;;;;1.93;1.83;;;;;;;-1.79;62.61;96799.34;5038320;28;20234;-70
2022/03/08 00:12:27;;;;;;;4.93;2.33;;;;;;;-1.74;62.80;96798.16;5037717;28;20611;-70
2022/03/08 00:14:54;;;;;;;4.33;1.97;;;;;;;-1.78;62.81;96801.00;5037970;28;20212;-70
2022/03/08 00:17:20;;;;;;;2.83;2.63;;;;;;;-1.89;63.36;96803.38;5038031;28;20216;-70
2022/03/08 00:19:48;;;;;;;2.67;2.47;;;;;;;-1.54;62.73;96810.72;5038201;28;20208;-70
2022/03/08 00:22:15;;;;;;;7.47;3.00;;;;;;;-1.61;62.87;96811.19;5037356;28;20236;-70
2022/03/08 00:24:41;;;;;;;4.30;3.00;;;;;;;-1.67;62.52;96806.34;5037962;28;20203;-70
2022/03/08 00:27:08;;;;;;;6.27;2.03;;;;;;;-1.60;62.04;96805.91;5038061;28;20208;-70
2022/03/08 00:29:34;;;;;;;1.53;1.43;;;;;;;-1.54;62.24;96799.53;5037570;28;20207;-70
2022/03/08 00:32:01;;;;;;;5.97;3.37;;;;;;;-1.62;61.88;96801.75;5037880;28;20205;-70
2022/03/08 00:34:28;;;;;;;2.27;1.97;;;;;;;-1.76;61.90;96799.16;5034468;28;20743;-70
2022/03/08 00:36:55;;;;;;;6.47;2.70;;;;;;;-1.65;62.42;96794.19;5037834;28;20212;-70
2022/03/08 00:39:22;;;;;;;5.07;2.57;;;;;;;-1.85;62.85;96789.34;5037122;28;20209;-70
2022/03/08 00:41:49;;;;;;;3.03;2.17;;;;;;;-1.85;63.40;96781.63;5037331;28;20216;-71
2022/03/08 00:44:15;;;;;;;3.03;2.07;;;;;;;-1.85;63.29;96784.19;5038380;28;20834;-70
2022/03/08 00:46:42;;;;;;;4.83;2.63;;;;;;;-1.96;64.32;96786.59;5038819;28;20205;-70
2022/03/08 00:49:08;;;;;;;3.03;2.20;;;;;;;-1.97;64.31;96776.31;5037185;28;20223;-70
2022/03/08 00:51:35;;;;;;;3.20;2.63;;;;;;;-2.03;64.05;96779.28;5038282;28;20212;-70
2022/03/08 00:54:03;;;;;;;2.50;2.30;;;;;;;-1.91;64.57;96776.78;5036098;28;20229;-70
2022/03/08 00:56:30;;;;;;;2.00;1.80;;;;;;;-2.36;65.33;96771.69;5037002;28;20201;-70
2022/03/08 00:58:56;;;;;;;2.87;2.67;;;;;;;-2.16;65.19;96776.56;5037596;28;20762;-70
2022/03/08 01:01:23;;;;;;;6.37;2.50;;;;;;;-2.16;65.18;96776.56;5037303;28;20205;-70
2022/03/08 01:03:49;;;;;;;2.40;1.87;;;;;;;-2.30;65.43;96771.34;5036191;28;20228;-71
2022/03/08 01:06:16;;;;;;;1.80;1.70;;;;;;;-2.19;65.24;96774.19;5037386;28;20593;-70
2022/03/08 01:08:43;;;;;;;3.13;2.00;;;;;;;-2.32;65.94;96773.22;5037259;28;20220;-70
2022/03/08 01:11:10;;;;;;;3.40;3.10;;;;;;;-2.03;66.45;96761.22;5036882;28;20212;-70
2022/03/08 01:13:37;;;;;;;4.43;2.47;;;;;;;-2.11;66.36;96769.41;5035985;28;20828;-69
2022/03/08 01:16:04;;;;;;;4.13;2.97;;;;;;;-2.03;66.07;96764.59;5037302;28;20205;-69
2022/03/08 01:18:31;;;;;;;5.40;2.77;;;;;;;-2.17;66.94;96764.56;5036841;28;20216;-70
2022/03/08 01:20:59;;;;;;;3.90;2.10;;;;;;;-2.13;67.26;96767.81;5036768;28;21321;-69
2022/03/08 01:23:25;;;;;;;3.97;2.77;;;;;;;-2.12;66.98;96762.56;5036146;28;20220;-69
2022/03/08 01:25:52;;;;;;;4.07;2.47;;;;;;;-2.22;66.63;96758.84;5036952;28;20220;-69
2022/03/08 01:28:20;;;;;;;2.03;1.73;;;;;;;-1.88;66.73;96763.72;5036980;28;20231;-70
2022/03/08 01:30:47;;;;;;;4.20;3.03;;;;;;;-2.00;66.77;96763.59;5037089;28;20197;-69
2022/03/08 01:33:14;;;;;;;2.33;2.13;;;;;;;-2.15;66.98;96760.16;5033448;28;20283;-70
2022/03/08 01:35:40;;;;;;;3.60;2.30;;;;;;;-2.15;66.62;96765.31;5036768;28;21231;-70
2022/03/08 01:38:07;;;;;;;1.63;1.47;;;;;;;-2.06;66.47;96754.47;5037065;28;20214;-70
2022/03/08 01:40:33;;;;;;;7.07;4.47;;;;;;;-2.04;66.23;96751.78;5035461;28;20212;-70
2022/03/08 01:43:02;;;;;;;4.97;2.33;;;;;;;-1.80;66.11;96746.03;5036025;28;20224;-70
2022/03/08 01:45:32;;;;;;;4.70;3.93;;;;;;;-1.88;66.28;96737.91;5037224;28;20201;-69
2022/03/08 01:47:58;;;;;;;4.07;2.13;;;;;;;-1.92;65.90;96736.44;5037015;28;20622;-70
2022/03/08 01:50:25;;;;;;;3.40;1.57;;;;;;;-2.03;66.79;96733.63;5036162;28;20204;-70
2022/03/08 01:52:52;;;;;;;7.90;2.57;;;;;;;-1.88;66.24;96732.75;5035186;28;20432;-70
2022/03/08 01:55:19;;;;;;;4.40;2.20;;;;;;;-1.82;66.07;96722.03;5037710;28;20640;-70
2022/03/08 01:57:47;;;;;;;2.10;1.90;;;;;;;-1.60;65.27;96725.81;5036520;28;20211;-69
2022/03/08 02:00:18;;;;;;;5.47;2.47;;;;;;;-1.69;65.91;96726.38;5036129;28;20319;-69
2022/03/08 02:02:47;;;;;;;5.63;3.43;;;;;;;-1.86;66.17;96719.72;5035968;28;20232;-69
2022/03/08 02:05:13;;;;;;;4.10;2.90;;;;;;;-1.87;66.09;96724.06;5036258;28;20201;-69
2022/03/08 02:07:40;;;;;;;7.07;1.73;;;;;;;-1.86;65.49;96723.13;5036305;28;20209;-69
2022/03/08 02:10:08;;;;;;;2.53;2.03;;;;;;;-1.80;65.76;96715.03;5036685;28;20203;-69
2022/03/08 02:12:35;;;;;;;6.73;2.47;;;;;;;-1.82;65.58;96722.03;5035784;28;20230;-70
2022/03/08 02:15:12;;;;;;;1.97;1.70;;;;;;;-1.61;65.11;96723.34;5036117;28;20232;-70
2022/03/08 02:17:38;;;;;;;2.03;1.77;;;;;;;-1.87;64.82;96721.50;5036450;28;20227;-70
2022/03/08 02:20:08;;;;;;;4.57;2.67;;;;;;;-1.70;65.05;96722.13;5036281;28;20203;-70
2022/03/08 02:22:36;;;;;;;2.20;1.73;;;;;;;-1.81;64.86;96718.53;5035446;28;20704;-70
2022/03/08 02:25:03;;;;;;;4.63;3.30;;;;;;;-1.84;64.91;96713.56;5036473;28;20236;-70
2022/03/08 02:27:31;;;;;;;4.00;2.23;;;;;;;-1.91;64.57;96717.41;5036090;28;20216;-70
2022/03/08 02:29:59;;;;;;;12.20;2.30;;;;;;;-1.75;64.20;96718.16;5036068;28;20209;-70
2022/03/08 02:32:26;;;;;;;6.10;3.73;;;;;;;-1.93;64.36;96714.09;5035542;28;20259;-69
2022/03/08 02:34:53;;;;;;;3.60;2.17;;;;;;;-2.00;63.72;96712.78;5032952;28;20229;-69
2022/03/08 02:37:21;;;;;;;3.93;1.90;;;;;;;-2.01;63.42;96711.16;5035948;28;20201;-69
2022/03/08 02:39:49;;;;;;;1.73;1.63;;;;;;;-1.69;63.77;96707.47;5036369;28;20363;-69
2022/03/08 02:42:15;;;;;;;2.40;2.23;;;;;;;-1.83;63.47;96710.06;5035214;28;21097;-70
2022/03/08 02:44:42;;;;;;;1.90;1.80;;;;;;;-1.74;63.36;96699.16;5035934;28;20205;-71
2022/03/08 02:47:09;;;;;;;3.50;2.47;;;;;;;-1.85;63.26;96701.56;5036112;28;20216;-70
2022/03/08 02:49:35;;;;;;;3.60;2.97;;;;;;;-1.83;63.39;96699.72;5036142;28;20208;-70
2022/03/08 02:52:02;;;;;;;2.63;2.17;;;;;;;-1.87;63.32;96699.97;5037331;28;20209;-70
2022/03/08 02:54:28;;;;;;;2.60;2.40;;;;;;;-1.91;63.77;96695.94;5039033;28;20874;-70
2022/03/08 02:56:57;;;;;;;4.17;2.53;;;;;;;-1.64;63.48;96692.53;5039701;28;20216;-70
2022/03/08 02:59:24;;;;;;;3.63;2.37;;;;;;;-1.83;63.60;96694.56;5039637;28;20197;-70
2022/03/08 03:01:51;;;;;;;2.23;1.73;;;;;;;-1.80;63.23;96690.00;5039329;28;20693;-69
2022/03/08 03:04:17;;;;;;;5.03;2.07;;;;;;;-1.79;62.87;96693.44;5039101;28;20211;-69
2022/03/08 03:06:44;;;;;;;1.37;1.27;;;;;;;-1.89;63.16;96694.91;5039708;28;20213;-70
2022/03/08 03:09:11;;;;;;;4.00;2.00;;;;;;;-1.87;62.96;96693.09;5039065;28;20203;-69
2022/03/08 03:11:38;;;;;;;2.80;2.47;;;;;;;-1.81;62.94;96692.69;5039597;28;20213;-70
2022/03/08 03:14:06;;;;;;;8.80;3.73;;;;;;;-1.72;62.78;96692.16;5038530;28;20233;-70
2022/03/08 03:16:32;;;;;;;3.57;2.80;;;;;;;-1.95;62.84;96695.28;5039582;28;20205;-70
2022/03/08 03:18:59;;;;;;;4.40;1.90;;;;;;;-2.12;63.13;96690.28;5039369;28;20223;-69
2022/03/08 03:23:58;;;;;;;2.50;1.53;;;;;;;-2.01;62.87;96692.22;5034589;28;20708;-69
2022/03/08 03:26:24;;;;;;;6.60;2.13;;;;;;;-1.99;63.29;96685.22;5039302;28;20217;-70
2022/03/08 03:28:51;;;;;;;1.03;1.03;;;;;;;-1.97;63.36;96686.81;5039587;28;20250;-69
2022/03/08 03:31:19;;;;;;;3.93;2.60;;;;;;;-1.89;63.26;96679.44;5038734;28;20208;-70
2022/03/08 03:33:46;;;;;;;6.57;2.53;;;;;;;-2.09;63.09;96682.34;5036062;28;20692;-70
2022/03/08 03:36:12;;;;;;;5.10;2.80;;;;;;;-2.28;64.14;96691.28;5039315;28;20215;-70
2022/03/08 03:38:39;;;;;;;5.97;1.93;;;;;;;-2.18;63.82;96688.06;5039063;28;20197;-70
2022/03/08 03:41:05;;;;;;;2.40;2.03;;;;;;;-2.26;64.02;96692.03;5039091;28;20205;-69
2022/03/08 03:43:32;;;;;;;4.37;3.17;;;;;;;-2.30;63.86;96688.78;5038918;28;20229;-70
2022/03/08 03:45:58;;;;;;;3.80;2.93;;;;;;;-2.29;64.21;96685.28;5038932;28;20216;-70
2022/03/08 03:48:26;;;;;;;2.30;2.10;;;;;;;-2.24;64.11;96675.53;5038821;28;20204;-70
2022/03/08 03:50:53;;;;;;;5.57;3.00;;;;;;;-2.33;64.09;96685.53;5038755;28;20692;-70
2022/03/08 03:53:19;;;;;;;3.30;2.33;;;;;;;-2.35;63.99;96685.63;5038011;28;20224;-70
2022/03/08 03:55:46;;;;;;;2.73;2.33;;;;;;;-2.45;64.14;96680.28;5038700;28;20228;-70
2022/03/08 03:58:12;;;;;;;1.77;1.10;;;;;;;-2.50;64.54;96679.72;5038969;28;20400;-70
2022/03/08 04:00:39;;;;;;;1.57;1.40;;;;;;;-2.55;64.76;96685.13;5038571;28;20239;-69
2022/03/08 04:03:05;;;;;;;2.83;2.63;;;;;;;-2.48;64.45;96689.03;5036556;28;20231;-70
2022/03/08 04:05:33;;;;;;;3.23;2.90;;;;;;;-2.18;63.55;96677.72;5037930;28;20684;-69
2022/03/08 04:08:00;;;;;;;12.10;3.90;;;;;;;-2.46;63.51;96687.16;5038740;28;20259;-70
2022/03/08 04:10:27;;;;;;;4.20;2.07;;;;;;;-2.43;63.88;96681.00;5038354;28;20207;-70
2022/03/08 04:12:53;;;;;;;4.10;2.33;;;;;;;-2.52;63.92;96682.38;5037753;28;20225;-70
2022/03/08 04:15:20;;;;;;;3.17;2.10;;;;;;;-2.46;64.14;96683.78;5038832;28;20231;-70
2022/03/08 04:17:46;;;;;;;2.30;2.10;;;;;;;-2.62;64.40;96690.72;5038327;28;20213;-70
2022/03/08 04:20:13;;;;;;;1.20;1.10;;;;;;;-2.54;64.56;96683.41;5037794;28;20212;-70
2022/03/08 04:22:41;;;;;;;1.33;1.23;;;;;;;-2.41;64.70;96680.84;5037716;28;20231;-70
2022/03/08 04:25:09;;;;;;;2.27;1.87;;;;;;;-2.46;64.29;96681.19;5038227;28;20209;-70
2022/03/08 04:27:36;;;;;;;3.57;1.60;;;;;;;-2.53;64.38;96688.47;5037984;28;20254;-70
2022/03/08 04:30:03;;;;;;;5.93;2.27;;;;;;;-2.45;64.30;96682.88;5038225;28;20211;-70
2022/03/08 04:32:29;;;;;;;2.73;2.20;;;;;;;-2.57;64.37;96683.56;5036887;28;20223;-70
2022/03/08 04:34:56;;;;;;;3.23;2.30;;;;;;;-2.57;64.37;96683.56;5035404;28;20232;-70
2022/03/08 04:37:23;;;;;;;2.77;1.93;;;;;;;-2.66;64.65;96689.22;5038382;28;20219;-69
2022/03/08 04:39:51;;;;;;;2.13;1.80;;;;;;;-2.51;64.60;96683.22;5037617;28;20216;-70
2022/03/08 04:42:17;;;;;;;3.73;2.47;;;;;;;-2.73;65.05;96696.50;5036492;28;20224;-70
2022/03/08 04:44:44;;;;;;;3.30;2.30;;;;;;;-2.76;65.64;96688.09;5038126;28;20200;-70
2022/03/08 04:47:10;;;;;;;1.73;1.13;;;;;;;-2.87;65.61;96690.47;5037523;28;20218;-70
2022/03/08 04:49:37;;;;;;;1.27;1.20;;;;;;;-3.00;66.24;96679.19;5037711;28;20716;-70
2022/03/08 04:52:04;;;;;;;3.00;2.60;;;;;;;-2.77;66.55;96684.69;5037396;28;20208;-70
2022/03/08 04:54:30;;;;;;;7.43;2.30;;;;;;;-2.80;66.23;96686.59;5037287;28;20229;-70
2022/03/08 04:56:58;;;;;;;2.53;2.33;;;;;;;-2.74;66.58;96686.25;5037780;28;20208;-70
2022/03/08 04:59:25;;;;;;;4.67;1.73;;;;;;;-3.10;67.48;96678.03;5037469;28;20200;-70
2022/03/08 05:01:51;;;;;;;2.53;2.33;;;;;;;-3.12;68.33;96687.56;5037032;28;20210;-71
2022/03/08 05:04:18;;;;;;;4.30;1.83;;;;;;;-2.99;68.04;96686.00;5037013;28;20200;-70
2022/03/08 05:06:44;;;;;;;4.03;2.30;;;;;;;-3.06;68.45;96684.66;5037358;28;20230;-70
2022/03/08 05:09:10;;;;;;;2.50;1.27;;;;;;;-2.93;67.99;96686.47;5037722;28;20203;-70
2022/03/08 05:11:37;;;;;;;2.77;1.83;;;;;;;-2.94;67.86;96686.53;5037951;28;20208;-69
2022/03/08 05:14:05;;;;;;;1.47;1.37;;;;;;;-2.71;67.54;96676.63;5035903;28;20234;-70
2022/03/08 05:16:31;;;;;;;2.47;2.27;;;;;;;-2.75;66.81;96676.84;5037069;28;20211;-70
2022/03/08 05:18:58;;;;;;;2.93;2.73;;;;;;;-2.70;66.54;96680.88;5037718;28;20212;-70
2022/03/08 05:21:25;;;;;;;2.50;2.30;;;;;;;-2.69;66.42;96676.53;5036931;28;20203;-70
2022/03/08 05:23:52;;;;;;;1.20;1.20;;;;;;;-2.57;66.19;96678.41;5036185;28;20234;-70
2022/03/08 05:26:18;;;;;;;4.67;2.33;;;;;;;-2.59;65.91;96680.25;5040190;28;20201;-69
2022/03/08 05:28:46;;;;;;;1.67;1.57;;;;;;;-2.64;66.03;96687.41;5046984;28;20212;-70
2022/03/08 05:31:14;;;;;;;5.47;3.23;;;;;;;-2.45;65.98;96681.09;5045966;28;20216;-69
2022/03/08 05:33:41;;;;;;;6.07;2.13;;;;;;;-2.65;65.90;96675.44;5044910;28;20669;-70
2022/03/08 05:36:07;;;;;;;5.80;2.80;;;;;;;-2.92;66.21;96687.31;5047328;28;20223;-69
2022/03/08 05:38:34;;;;;;;2.17;1.97;;;;;;;-2.73;65.37;96693.09;5045976;28;20212;-70
2022/03/08 05:41:01;;;;;;;6.37;3.00;;;;;;;-2.78;65.61;96695.09;5046593;28;20577;-70
2022/03/08 05:43:29;;;;;;;1.77;1.63;;;;;;;-2.59;65.87;96686.22;5046099;28;20333;-69
2022/03/08 05:45:55;;;;;;;2.27;2.10;;;;;;;-2.70;65.95;96692.91;5044519;28;20940;-70
2022/03/08 05:48:23;;;;;;;16.30;5.10;;;;;;;-2.75;67.23;96692.34;5039910;28;20458;-69
2022/03/08 05:50:50;;;;;;;3.03;2.53;;;;;;;-2.72;66.26;96694.75;5038140;28;20217;-70
2022/03/08 05:53:17;;;;;;;2.00;1.77;;;;;;;-2.66;65.63;96691.81;5037205;28;20236;-70
2022/03/08 05:55:43;;;;;;;3.23;1.53;;;;;;;-2.73;65.24;96693.91;5037964;28;20235;-70
2022/03/08 05:58:09;;;;;;;3.00;2.70;;;;;;;-2.90;65.91;96695.78;5037380;28;20219;-70
2022/03/08 06:00:36;;;;;;;1.00;1.00;;;;;;;-2.85;65.68;96698.91;5037872;28;20216;-70
2022/03/08 06:03:03;;;;;;;4.73;2.43;;;;;;;-2.95;65.46;96697.78;5037181;28;20228;-69
2022/03/08 06:05:30;;;;;;;1.83;1.73;;;;;;;-2.78;65.41;96697.69;5037380;28;20627;-69
2022/03/08 06:07:57;;;;;;;10.20;2.40;;;;;;;-3.03;65.70;96695.63;5037812;28;20218;-70
2022/03/08 06:10:24;;;;;;;3.07;2.00;;;;;;;-2.98;66.11;96708.25;5037443;28;20208;-70
2022/03/08 06:12:50;;;;;;;2.63;1.97;;;;;;;-3.03;66.05;96714.59;5036836;28;20298;-69
2022/03/08 06:15:17;;;;;;;4.50;3.43;;;;;;;-3.07;66.33;96713.09;5037748;28;20583;-69
2022/03/08 06:17:43;;;;;;;1.40;1.30;;;;;;;-3.04;66.43;96715.50;5037629;28;20232;-69
2022/03/08 06:20:10;;;;;;;1.03;0.97;;;;;;;-2.91;66.03;96725.06;5037142;28;20220;-70
2022/03/08 06:22:39;;;;;;;2.00;1.90;;;;;;;-2.77;66.30;96723.38;5037338;28;20667;-70
2022/03/08 06:25:06;;;;;;;1.83;1.73;;;;;;;-2.84;66.89;96732.38;5037178;28;20208;-69
2022/03/08 06:27:33;;;;;;;2.93;2.03;;;;;;;-2.77;66.10;96732.88;5039011;28;20208;-70
2022/03/08 06:30:00;;;;;;;0.77;0.77;;;;;;;-2.74;65.84;96738.66;5041504;28;20252;-69
2022/03/08 06:32:26;;;;;;;1.77;1.40;;;;;;;-2.62;65.59;96737.13;5040295;28;20280;-69
2022/03/08 06:34:53;;;;;;;2.40;2.20;;;;;;;-2.58;65.54;96733.47;5038027;28;20223;-69
2022/03/08 06:37:20;;;;;;;2.70;2.37;;;;;;;-2.46;65.91;96738.78;5041235;28;20209;-69
2022/03/08 06:39:48;;;;;;;6.73;2.00;;;;;;;-2.39;66.50;96740.91;5040536;28;20240;-70
2022/03/08 06:42:15;;;;;;;1.90;1.73;;;;;;;-2.34;66.65;96741.50;5039993;28;20228;-69
2022/03/08 06:44:41;;;;;;;2.60;1.87;;;;;;;-2.25;66.79;96740.97;5040547;28;20212;-70
2022/03/08 06:47:09;;;;;;;1.67;1.57;;;;;;;-2.07;66.39;96739.06;5040040;28;20219;-69
2022/03/08 06:49:38;;;;;;;6.03;4.23;;;;;;;-1.87;66.45;96733.56;5040415;28;20208;-69
2022/03/08 06:52:05;;;;;;;1.07;0.73;;;;;;;-1.81;66.02;96731.44;5040252;28;20697;-69
2022/03/08 06:54:32;;;;;;;1.93;1.80;;;;;;;-1.80;65.46;96738.28;5039668;28;20201;-70
2022/03/08 06:56:59;;;;;;;4.17;2.43;;;;;;;-1.51;65.67;96734.78;5040831;28;20661;-70
2022/03/08 06:59:26;;;;;;;5.13;3.20;;;;;;;-1.51;66.01;96738.19;5040461;28;20197;-69
2022/03/08 07:01:53;;;;;;;3.17;2.60;;;;;;;-1.42;66.95;96731.63;5040104;28;20205;-70
2022/03/08 07:04:19;;;;;;;5.43;2.60;;;;;;;-1.26;65.91;96727.19;5039363;28;20215;-70
2022/03/08 07:06:46;;;;;;;3.17;2.53;;;;;;;-1.18;65.47;96725.78;5040400;28;20224;-69
2022/03/08 07:09:12;;;;;;;7.77;1.67;;;;;;;-1.07;64.94;96724.19;5040877;28;20208;-70
2022/03/08 07:11:40;;;;;;;4.53;3.10;;;;;;;-0.95;64.21;96723.41;5039983;28;20213;-69
2022/03/08 07:14:08;;;;;;;3.13;2.13;;;;;;;-0.81;64.65;96720.78;5039299;28;21071;-70
2022/03/08 07:16:34;;;;;;;2.00;1.90;;;;;;;-0.81;64.36;96731.16;5040540;28;20232;-69
2022/03/08 07:19:01;;;;;;;7.60;1.87;;;;;;;-0.77;63.48;96735.19;5039553;28;20685;-70
2022/03/08 07:21:28;;;;;;;4.53;2.33;;;;;;;-0.63;62.98;96724.81;5039266;28;20212;-70
2022/03/08 07:23:55;;;;;;;4.70;3.07;;;;;;;-0.58;63.75;96730.50;5038683;28;20328;-70
2022/03/08 07:26:21;;;;;;;7.97;4.10;;;;;;;-0.33;63.12;96726.25;5039843;28;20213;-70
2022/03/08 07:28:47;;;;;;;7.10;3.33;;;;;;;-0.30;62.80;96725.22;5039525;28;20209;-70
2022/03/08 07:31:16;;;;;;;2.63;2.37;;;;;;;0.05;62.38;96719.34;5040601;28;20263;-69
2022/03/08 07:33:42;;;;;;;2.60;2.40;;;;;;;0.04;61.89;96721.13;5039669;28;20743;-69
2022/03/08 07:36:09;;;;;;;6.33;2.50;;;;;;;-0.08;61.81;96717.69;5039649;28;20240;-69
2022/03/08 07:38:35;;;;;;;1.87;1.73;;;;;;;-0.05;62.52;96718.31;5040497;28;20296;-69
2022/03/08 07:41:03;;;;;;;4.00;2.47;;;;;;;0.38;61.29;96715.34;5040801;28;20209;-69
2022/03/08 07:43:29;;;;;;;3.70;2.20;;;;;;;0.23;61.73;96724.16;5040127;28;20229;-69
2022/03/08 07:45:56;;;;;;;8.20;3.00;;;;;;;0.48;60.74;96710.34;5041142;28;20227;-70
2022/03/08 07:48:24;;;;;;;2.83;2.53;;;;;;;0.37;58.79;96720.59;5040806;28;20209;-70
2022/03/08 07:50:50;;;;;;;7.77;3.27;;;;;;;0.59;60.83;96727.63;5042055;28;20206;-70
2022/03/08 07:53:17;;;;;;;1.73;1.60;;;;;;;0.65;59.05;96726.41;5041466;28;20233;-70
2022/03/08 07:55:43;;;;;;;5.57;1.87;;;;;;;0.94;59.79;96731.22;5042723;28;20240;-70
2022/03/08 07:58:12;;;;;;;2.73;2.47;;;;;;;1.04;58.86;96731.41;5040919;28;20258;-70
2022/03/08 08:00:40;;;;;;;5.30;2.83;;;;;;;0.90;60.02;96721.97;5040488;28;20209;-70
2022/03/08 08:03:07;;;;;;;7.83;2.67;;;;;;;1.01;60.82;96731.63;5038554;28;20584;-70
2022/03/08 08:05:35;;;;;;;4.67;2.70;;;;;;;1.29;59.32;96722.59;5038212;28;20236;-70
2022/03/08 08:08:08;;;;;;;5.73;2.30;;;;;;;1.58;58.33;96726.53;5038399;28;20209;-70
2022/03/08 08:10:35;;;;;;;5.40;3.27;;;;;;;1.22;57.95;96712.75;5040220;28;20209;-70
2022/03/08 08:13:02;;;;;;;7.90;2.73;;;;;;;1.27;59.24;96711.50;5038163;28;20630;-70
2022/03/08 08:15:28;;;;;;;2.93;1.67;;;;;;;1.47;59.40;96710.88;5039284;28;20273;-70
2022/03/08 08:17:55;;;;;;;3.63;2.50;;;;;;;1.72;58.86;96708.19;5039822;28;20220;-70
2022/03/08 08:20:21;;;;;;;3.57;2.97;;;;;;;1.92;58.22;96713.56;5039740;28;20213;-70
2022/03/08 08:22:49;;;;;;;3.37;2.47;;;;;;;2.26;58.41;96709.25;5038724;28;20333;-70
2022/03/08 08:25:16;;;;;;;4.90;1.17;;;;;;;2.24;56.40;96705.94;5040080;28;20205;-70
2022/03/08 08:27:42;;;;;;;2.23;1.60;;;;;;;2.25;57.07;96710.19;5039290;28;20232;-70
2022/03/08 08:30:10;;;;;;;3.70;2.70;;;;;;;2.23;56.44;96709.47;5038567;28;21106;-70
2022/03/08 08:32:37;;;;;;;3.10;2.23;;;;;;;2.47;56.94;96711.88;5037432;28;20225;-70
2022/03/08 08:35:05;;;;;;;6.37;2.80;;;;;;;2.70;55.57;96710.97;5039518;28;20201;-70
2022/03/08 08:37:31;;;;;;;2.77;2.43;;;;;;;2.57;55.39;96709.41;5037210;28;20201;-70
2022/03/08 08:39:59;;;;;;;4.53;3.33;;;;;;;2.76;55.65;96718.31;5037433;28;20736;-70
2022/03/08 08:42:26;;;;;;;3.10;2.50;;;;;;;2.75;54.56;96711.44;5036261;28;20560;-70
2022/03/08 08:44:52;;;;;;;4.07;2.80;;;;;;;2.78;54.67;96716.38;5037821;28;20205;-70
2022/03/08 08:47:18;;;;;;;2.53;2.20;;;;;;;2.85;53.39;96717.59;5037198;28;20201;-70
2022/03/08 08:49:45;;;;;;;4.10;1.43;;;;;;;3.07;54.81;96714.97;5037477;28;20212;-70
2022/03/08 08:52:13;;;;;;;5.73;2.73;;;;;;;3.23;55.54;96711.03;5035984;28;20412;-70
2022/03/08 08:54:39;;;;;;;1.57;1.47;;;;;;;2.98;54.25;96715.69;5034819;28;20290;-70
2022/03/08 08:57:07;;;;;;;3.87;2.53;;;;;;;3.42;55.28;96711.19;5036051;28;20240;-70
2022/03/08 08:59:34;;;;;;;2.63;2.27;;;;;;;3.20;53.51;96703.44;5037194;28;20227;-70
2022/03/08 09:02:01;;;;;;;7.20;2.47;;;;;;;3.03;53.17;96703.97;5036697;28;20223;-70
2022/03/08 09:04:27;;;;;;;3.60;2.30;;;;;;;3.36;53.94;96708.25;5036443;28;20208;-70
2022/03/08 09:06:53;;;;;;;3.40;2.73;;;;;;;3.11;52.81;96705.97;5037489;28;20201;-70
2022/03/08 09:09:20;;;;;;;10.40;3.30;;;;;;;3.15;52.80;96705.59;5036920;28;20212;-70
2022/03/08 09:11:46;;;;;;;2.47;2.27;;;;;;;3.37;52.12;96702.09;5037131;28;20662;-70
2022/03/08 09:14:15;;;;;;;5.13;2.40;;;;;;;3.75;52.40;96708.50;5036883;28;20333;-70
2022/03/08 09:16:42;;;;;;;3.10;2.40;;;;;;;3.44;51.79;96713.72;5037050;28;20225;-70
2022/03/08 09:19:09;;;;;;;4.63;1.57;;;;;;;3.65;51.92;96710.19;5036965;28;20837;-70
2022/03/08 09:21:37;;;;;;;4.57;2.33;;;;;;;3.95;51.26;96705.09;5037086;28;20585;-70
2022/03/08 09:24:04;;;;;;;5.67;2.67;;;;;;;3.84;51.99;96705.97;5036243;28;20317;-70
2022/03/08 09:26:30;;;;;;;4.53;2.77;;;;;;;3.80;52.13;96709.75;5036588;28;20220;-70
2022/03/08 09:28:57;;;;;;;1.33;1.23;;;;;;;3.95;51.14;96705.91;5037055;28;20598;-70
2022/03/08 09:31:25;;;;;;;7.13;1.83;;;;;;;4.26;50.95;96707.66;5037394;28;20201;-70
2022/03/08 09:33:52;;;;;;;2.30;1.80;;;;;;;4.42;50.38;96700.22;5036118;28;20242;-70
2022/03/08 09:36:18;;;;;;;5.37;1.93;;;;;;;4.58;50.03;96692.72;5036902;28;20229;-70
2022/03/08 09:38:45;;;;;;;3.30;1.67;;;;;;;4.68;49.48;96701.44;5036913;28;20205;-70
2022/03/08 09:41:13;;;;;;;2.93;2.03;;;;;;;4.95;49.69;96695.53;5036651;28;20213;-70
2022/03/08 09:43:40;;;;;;;2.77;2.00;;;;;;;4.44;49.30;96682.63;5036092;28;20698;-70
2022/03/08 09:46:07;;;;;;;4.63;1.77;;;;;;;4.91;49.12;96688.06;5037079;28;20204;-70
2022/03/08 09:48:35;;;;;;;5.97;2.00;;;;;;;5.25;48.95;96679.78;5036044;28;20205;-70
2022/03/08 09:51:04;;;;;;;2.43;1.97;;;;;;;5.29;47.72;96673.31;5036225;28;20521;-70
2022/03/08 09:53:31;;;;;;;4.93;2.00;;;;;;;5.45;46.67;96660.59;5036091;28;20240;-70
2022/03/08 09:55:59;;;;;;;5.23;2.60;;;;;;;5.31;48.00;96675.81;5036690;28;20229;-70
2022/03/08 09:58:25;;;;;;;5.30;2.73;;;;;;;5.49;45.85;96664.56;5036131;28;20208;-70
2022/03/08 10:00:55;;;;;;;4.60;2.47;;;;;;;5.72;45.55;96665.97;5035575;28;20669;-70
2022/03/08 10:03:32;;;;;;;2.73;1.73;;;;;;;6.14;44.18;96669.00;5035603;28;20229;-69
2022/03/08 10:06:01;;;;;;;6.43;2.40;;;;;;;5.97;44.63;96660.19;5036517;28;20209;-70
2022/03/08 10:08:28;;;;;;;2.67;1.63;;;;;;;5.89;44.76;96652.22;5036469;28;20680;-70
2022/03/08 10:10:58;;;;;;;30.07;1.57;;;;;;;5.86;43.16;96652.50;5036534;28;20205;-70
2022/03/08 10:13:27;;;;;;;5.10;2.80;;;;;;;6.12;43.02;96654.41;5035592;28;20217;-70
2022/03/08 10:16:08;;;;;;;9.53;2.47;;;;;;;6.30;42.70;96645.69;5035932;28;20229;-70
2022/03/08 10:18:36;;;;;;;3.80;1.80;;;;;;;6.01;43.31;96645.88;5035693;28;20774;-69
2022/03/08 10:21:05;;;;;;;2.43;1.57;;;;;;;6.23;43.16;96644.59;5036430;28;20209;-69
2022/03/08 10:23:41;;;;;;;3.30;2.20;;;;;;;6.34;42.93;96638.38;5035609;28;20236;-70
2022/03/08 10:26:11;;;;;;;8.57;2.13;;;;;;;6.49;42.80;96639.56;5036561;28;20208;-69
2022/03/08 10:28:45;;;;;;;7.30;2.40;;;;;;;6.78;41.56;96633.25;5036580;28;20212;-69
2022/03/08 10:31:14;;;;;;;1.37;1.17;;;;;;;6.91;43.11;96644.22;5035895;28;20266;-70
2022/03/08 10:33:41;;;;;;;2.97;2.23;;;;;;;6.74;41.68;96634.53;5035086;28;20965;-70
2022/03/08 10:36:15;;;;;;;4.57;2.50;;;;;;;6.85;42.62;96636.97;5036325;28;20228;-70
2022/03/08 10:38:42;;;;;;;2.13;1.93;;;;;;;6.99;40.85;96639.13;5036008;28;20258;-70
2022/03/08 10:41:18;;;;;;;4.27;2.23;;;;;;;7.26;40.35;96645.16;5036332;28;20212;-70
2022/03/08 10:43:49;;;;;;;4.07;2.20;;;;;;;7.25;41.75;96634.81;5035390;28;20225;-70
2022/03/08 10:46:17;;;;;;;5.53;2.60;;;;;;;7.28;41.73;96643.22;5036200;28;20209;-70
2022/03/08 10:48:46;;;;;;;4.50;1.73;;;;;;;6.98;41.68;96640.88;5036010;28;20201;-70
2022/03/08 10:51:15;;;;;;;3.13;1.67;;;;;;;6.97;41.96;96633.19;5036091;28;20232;-70
2022/03/08 10:53:41;;;;;;;3.43;1.97;;;;;;;6.99;41.37;96632.06;5035039;28;20283;-70
2022/03/08 10:56:09;;;;;;;5.97;1.73;;;;;;;7.42;41.22;96635.69;5035481;28;20705;-70
2022/03/08 10:58:49;;;;;;;5.70;2.83;;;;;;;7.70;39.70;96629.41;5036377;28;20204;-70
2022/03/08 11:01:16;;;;;;;5.40;2.23;;;;;;;7.37;40.08;96626.63;5036066;28;20201;-70
2022/03/08 11:03:55;;;;;;;4.90;2.30;;;;;;;7.81;39.41;96630.97;5034966;28;20248;-70
2022/03/08 11:06:24;;;;;;;5.07;2.70;;;;;;;7.97;38.61;96618.81;5035674;28;20698;-70
2022/03/08 11:08:52;;;;;;;5.90;2.57;;;;;;;8.07;40.36;96611.66;5035977;28;20205;-70
2022/03/08 11:11:20;;;;;;;6.17;3.17;;;;;;;7.99;39.37;96619.47;5036255;28;20209;-70
2022/03/08 11:13:51;;;;;;;2.80;1.47;;;;;;;7.94;38.87;96612.06;5037513;28;20712;-70
2022/03/08 11:16:19;;;;;;;4.23;2.33;;;;;;;7.66;38.69;96611.47;5039107;28;20254;-70
2022/03/08 11:18:49;;;;;;;6.67;2.80;;;;;;;7.94;38.25;96603.34;5039351;28;20217;-70
2022/03/08 11:21:17;;;;;;;8.40;2.50;;;;;;;7.82;38.23;96609.81;5038869;28;20231;-70
2022/03/08 11:23:45;;;;;;;2.90;1.87;;;;;;;8.00;37.74;96606.19;5038576;28;20225;-69
2022/03/08 11:26:14;;;;;;;4.93;2.17;;;;;;;8.07;37.54;96607.25;5039138;28;20672;-69
2022/03/08 11:28:44;;;;;;;2.83;2.03;;;;;;;8.27;38.38;96611.34;5038848;28;20205;-69
2022/03/08 11:31:11;;;;;;;3.07;1.57;;;;;;;8.16;37.44;96597.63;5039176;28;20201;-69
2022/03/08 11:33:44;;;;;;;4.47;1.73;;;;;;;8.39;38.01;96596.16;5038014;28;20713;-69
2022/03/08 11:36:19;;;;;;;4.37;1.10;;;;;;;8.40;37.88;96592.56;5038911;28;20642;-69
2022/03/08 11:39:12;;;;;;;2.30;1.67;;;;;;;8.53;38.01;96589.34;5039491;28;20945;-70